LIEOLOWI

Guest
Details From LIEO - Olbia Costa Smeralda
To LOWI - Innsbruck Kranebitten
Flight Number -
Tags Generated
Created
Modified
Stats Distance 390 nm / 723 km
Max Altitude 0 ft / 0 m
Waypoints 3
Social Downloads 1
Likes 0
Share VATSIM

Download

Looking for another format? Having issues loading an existing format? Contact us
Advertisement - Login to hide

Notes

Generated

Route

LIEO MATAR LOWI

ID Type Via Altitude Latitude Longitude Leg Dist Tot Dist Heading (true) Name
O LIEO APT - 0 ft / 0 m 40.89241˚ 9.50569˚ - 0 nm - -
MATAR FIX - 0 ft / 0 m 46.97500˚ 11.25333˚ 373 nm 373 nm 11° / 12° -
O LOWI APT - 0 ft / 0 m 47.25883˚ 11.33091˚ 17 nm 390 nm 11° / 11° -

Altitude Profile

Advertisement - Login to hide

Weather


0- 5 10 15 20 25 30 35+ Temperature / ° C

Clouds and Precipitation
Forecast for 2017-12-11 18:00 UTC. Updated 9 minutes ago

Ground ~20,000 ft ~40,000 ft Winds

LIEO

Details ICAO LIEO (OLB)
Name OLBIA COSTA SMERALDA
Region Italy
Timezone Europe/Rome (UTC+1.0)
Stats Elevation 37 ft / 11 m (AMSL)
Location 40.898661° 9.517629°
Runways 1
Magnetic Variation 2.442° E

METAR

LIEO 111650Z 22010G20KT 9999 FEW040 19/06 Q1001

Decode

TAF

TAF AMD LIEO 111532Z 1115/1212 20018G28KT 9999 SCT030 BECMG 1120/1122 24008KT TEMPO 1209/1212 RA

Decode

Departure Runways

ID Width Length Bearing (true) Bearing (mag) Surface Threshold Offset Overrun Length
06 148 ft / 45 m 8,013 ft / 2,442 m 55.30° 52.86° Asphalt 805 ft / 245 m 180 ft / 55 m
24 148 ft / 45 m 8,013 ft / 2,442 m 235.31° 232.87° Asphalt 495 ft / 151 m 180 ft / 55 m

LOWI

Details ICAO LOWI (INN)
Name Innsbruck Kranebitten
Region Austria
Timezone Europe/Vienna (UTC+1.0)
Stats Elevation 1,906 ft / 581 m (AMSL)
Location 47.260226° 11.343967°
Runways 1
Magnetic Variation 3.018° E

METAR

LOWI 111650Z 13017KT 100V170 9999 -RA FEW060 SCT080 BKN090 12/03 Q0987 R08/19//95 NOSIG

Decode

TAF

TAF TAF AMD LOWI 111439Z 1114/1212 10012G25KT 9999 FEW060 SCT070 BKN110 TX12/1114Z TN04/1208Z TEMPO 1114/1120 13017G35KT PROB30 TEMPO 1114/1119 12025G45KT BECMG 1120/1122 27007KT -RA SCT040 BKN060 TEMPO 1122/1208 30015G25KT RA SCT010 BKN030 PROB40 TEMPO 1204/1207 2500 SNRA SCT005 BKN013

Decode

Destination Runways

ID Width Length Bearing (true) Bearing (mag) Surface Threshold Offset Overrun Length
08 148 ft / 45 m 6,545 ft / 1,995 m 81.02° 78.00° Asphalt 338 ft / 103 m 0 ft / 0 m
26 148 ft / 45 m 6,545 ft / 1,995 m 261.04° 258.02° Asphalt 0 ft / 0 m 0 ft / 0 m

Approach Navaids

Runway Type Ident Frequency Range Bearing (true) Bearing (mag) Slope Elevation
26 Localiser OEV 111.10 MHz 27 nm / 50 km 256.00° 252.98° - 1,906 ft / 581 m (AMSL)
26 Localiser OEJ 109.70 MHz 30 nm / 56 km 69.00° 65.98° - 1,906 ft / 581 m (AMSL)
26 Glidescope OEV 111.10 MHz 18 nm / 33 km 256.00° 252.98° 3.80° 1,911 ft / 582 m (AMSL)
26 DME OEJ 109.70 MHz 30 nm / 56 km - - - 1,906 ft / 581 m (AMSL)
26 DME OEV 111.10 MHz 27 nm / 50 km - - - 1,911 ft / 582 m (AMSL)

Popular Alternatives